Hovedside
METAR-TAF:

METAR-TAF

Lufthavner :

Vardø lufthavn. Svartnes

Vardø, Norge

breddegrad: 70-21N, lengdegrad: 031-03E, høyde over havet: 12 m

Gjeldene værobservasjon

Denne rapporten ble laget for 21 minutter siden, klokken 06:50 UTC
Vind 14 kt fra Nordvest
Temperatur 9°C
Luftfuktighet 81%
Trykk 1005 hPa
Sikt 10 km eller mer
Få skyer i en høyde av 2000 ft
Brutte skyer i en høyde av 2700 ft

METAR: ENSS 140650Z 31014KT 9999 FEW020 BKN027 09/06 Q1005 RMK WIND 500FT 31013KT

Tid: 09:11 (07:11 UTC)


TAF: fraværende

Værobservasjoner og værvarsel for over 4000 flyplasser (METAR- og TAF-rapporter).

Tilgjengelige stasjoner er representert av de røde og gule prikkene på kartet.

Hold musepekeren over prikken for å se navnet på stasjonen.

Klikk så for å se værobservasjoner og -varsler.

For å forandre kartet kan du klikke på den grønne knappen med svart kryss for å zoome inn, på den grønne knappen med strek for å zoome ut, eller på de grønne pilene for å se tilstøtende kart.


METAR-TAF: